Terminal Aerodrome Forecast
Issued by NWS

Home | Current Version | Previous Version | Text Only | Print | Product List | Glossary On
Versions: 1 2 3 4 5 6 7 8 9 10 11 12 13 14
000
FTUS43 KAPX 261720
TAFMBL
TAF
KMBL 261720Z 2618/2718 34010KT P6SM SKC
      TEMPO 2619/2622 OVC080
     FM270200 33008KT P6SM SCT100
     FM270800 36007KT P6SM OVC030
     FM271500 35009G15KT P6SM BKN035
      AMD LTD TO CLD VIS AND WIND=

USA.gov is the U.S. government's official web portal to all federal, state and local government web resources and services.